createdAt,value
2017-10-16T00:00:26.634Z,98.01
2017-10-16T00:02:54.136Z,98.12
2017-10-16T00:05:22.107Z,98.09
2017-10-16T00:07:49.634Z,98.02
2017-10-16T00:10:17.153Z,98.03
2017-10-16T00:12:44.739Z,98.03
2017-10-16T00:15:12.254Z,97.95
2017-10-16T00:17:39.747Z,98.20
2017-10-16T00:20:07.255Z,98.25
2017-10-16T00:22:34.784Z,98.14
2017-10-16T00:25:02.329Z,98.30
2017-10-16T00:27:29.873Z,98.54
2017-10-16T00:29:57.463Z,98.66
2017-10-16T00:32:24.898Z,98.61
2017-10-16T00:34:52.488Z,98.56
2017-10-16T00:37:19.975Z,98.60
2017-10-16T00:39:47.551Z,98.42
2017-10-16T00:42:15.181Z,98.88
2017-10-16T00:44:43.732Z,98.54
2017-10-16T00:47:11.170Z,98.51
2017-10-16T00:49:39.000Z,98.50
2017-10-16T00:52:06.496Z,98.47
2017-10-16T00:54:34.004Z,98.91
2017-10-16T00:57:01.883Z,99.22
2017-10-16T00:59:29.519Z,99.26
2017-10-16T01:01:57.003Z,98.89
2017-10-16T01:04:25.028Z,99.04
2017-10-16T01:06:52.604Z,99.02
2017-10-16T01:09:20.270Z,98.95
2017-10-16T01:11:48.138Z,98.79
2017-10-16T01:14:15.627Z,98.78
2017-10-16T01:16:43.129Z,99.04
2017-10-16T01:19:10.925Z,99.02
2017-10-16T01:21:38.600Z,98.96
2017-10-16T01:24:06.169Z,99.00
2017-10-16T01:26:33.818Z,98.88
2017-10-16T01:29:01.381Z,98.76
2017-10-16T01:31:28.950Z,98.77
2017-10-16T01:33:56.822Z,98.71
2017-10-16T01:36:24.307Z,99.22
2017-10-16T01:38:51.941Z,99.08
2017-10-16T01:41:19.801Z,98.92
2017-10-16T01:43:47.471Z,98.74
2017-10-16T01:46:15.030Z,98.99
2017-10-16T01:48:42.920Z,99.10
2017-10-16T01:51:10.540Z,99.02
2017-10-16T01:53:38.028Z,98.91
2017-10-16T01:56:05.581Z,98.95
2017-10-16T01:58:33.160Z,99.18
2017-10-16T02:01:00.652Z,99.57
2017-10-16T02:03:28.163Z,99.69
2017-10-16T02:05:55.620Z,99.62
2017-10-16T02:08:23.088Z,99.38
2017-10-16T02:10:50.620Z,99.32
2017-10-16T02:13:18.120Z,99.14
2017-10-16T02:15:45.609Z,99.36
2017-10-16T02:18:13.085Z,99.07
2017-10-16T02:20:40.529Z,99.00
2017-10-16T02:23:08.088Z,98.98
2017-10-16T02:25:35.916Z,98.75
2017-10-16T02:28:03.482Z,98.72
2017-10-16T02:30:31.038Z,98.73
2017-10-16T02:32:58.651Z,99.08
2017-10-16T02:35:26.172Z,98.96
2017-10-16T02:37:53.653Z,99.07
2017-10-16T02:40:21.178Z,98.94
2017-10-16T02:42:48.748Z,98.84
2017-10-16T02:45:16.304Z,98.92
2017-10-16T02:47:43.831Z,98.83
2017-10-16T02:50:11.441Z,98.84
2017-10-16T02:52:38.919Z,99.01
2017-10-16T02:55:06.509Z,98.94
2017-10-16T02:57:34.022Z,98.86
2017-10-16T03:00:01.556Z,98.85
2017-10-16T03:02:29.096Z,98.95
2017-10-16T03:04:56.714Z,99.15
2017-10-16T03:07:24.190Z,99.30
2017-10-16T03:09:51.931Z,99.29
2017-10-16T03:12:19.399Z,99.75
2017-10-16T03:14:46.962Z,99.62
2017-10-16T03:17:14.634Z,99.39
2017-10-16T03:19:42.133Z,99.28
2017-10-16T03:22:09.682Z,98.76
2017-10-16T03:24:37.563Z,99.36
2017-10-16T03:27:05.109Z,98.73
2017-10-16T03:29:32.655Z,98.72
2017-10-16T03:32:00.220Z,98.71
2017-10-16T03:34:27.742Z,98.51
2017-10-16T03:36:55.261Z,98.83
2017-10-16T03:39:22.924Z,99.00
2017-10-16T03:41:50.426Z,98.96
2017-10-16T03:46:51.830Z,99.18
2017-10-16T03:49:19.378Z,99.16
2017-10-16T03:51:47.128Z,99.03
2017-10-16T03:54:14.659Z,99.09
2017-10-16T03:56:42.118Z,98.99
2017-10-16T03:59:09.651Z,99.11
2017-10-16T04:01:37.522Z,99.23
2017-10-16T04:04:05.441Z,99.07
2017-10-16T04:06:33.224Z,98.71
2017-10-16T04:09:00.762Z,98.96
2017-10-16T04:11:28.428Z,98.89
2017-10-16T04:13:56.923Z,98.81
2017-10-16T04:16:24.511Z,98.85
2017-10-16T04:18:52.102Z,98.70
2017-10-16T04:21:19.657Z,98.67
2017-10-16T04:23:47.481Z,98.80
2017-10-16T04:26:15.075Z,98.74
2017-10-16T04:28:42.693Z,98.74
2017-10-16T04:31:10.285Z,98.81
2017-10-16T04:33:37.901Z,98.89
2017-10-16T04:36:06.415Z,99.04
2017-10-16T04:38:34.538Z,99.07
2017-10-16T04:41:02.023Z,99.01
2017-10-16T04:43:29.584Z,99.08
2017-10-16T04:45:57.294Z,98.99
2017-10-16T04:48:24.812Z,99.06
2017-10-16T04:50:52.310Z,99.05
2017-10-16T04:53:20.000Z,99.02
2017-10-16T04:55:48.212Z,99.09
2017-10-16T04:58:15.835Z,99.18
2017-10-16T05:00:43.529Z,99.29
2017-10-16T05:03:13.812Z,99.33
2017-10-16T05:05:41.356Z,99.28
2017-10-16T05:08:09.290Z,99.36
2017-10-16T05:10:36.782Z,99.51
2017-10-16T05:13:04.303Z,99.51
2017-10-16T05:15:31.907Z,99.50
2017-10-16T05:17:59.600Z,99.58
2017-10-16T05:20:27.210Z,99.38
2017-10-16T05:22:54.782Z,99.47
2017-10-16T05:25:22.318Z,99.48
2017-10-16T05:27:50.328Z,99.34
2017-10-16T05:30:20.216Z,99.22
2017-10-16T05:32:47.738Z,99.19
2017-10-16T05:35:15.262Z,99.37
2017-10-16T05:37:42.800Z,99.14
2017-10-16T05:40:10.323Z,99.38
2017-10-16T05:42:37.922Z,99.04
2017-10-16T05:45:05.793Z,99.18
2017-10-16T05:47:33.373Z,99.18
2017-10-16T05:50:01.035Z,99.35
2017-10-16T05:52:28.658Z,99.49
2017-10-16T05:54:56.229Z,99.27
2017-10-16T05:57:23.725Z,99.37
2017-10-16T05:59:51.259Z,99.09
2017-10-16T06:02:18.804Z,98.92
2017-10-16T06:04:46.360Z,98.68
2017-10-16T06:07:13.935Z,98.48
2017-10-16T06:09:41.497Z,98.55
2017-10-16T06:12:09.026Z,98.52
2017-10-16T06:14:36.560Z,98.36
2017-10-16T06:17:04.148Z,98.15
2017-10-16T06:19:31.631Z,97.96
2017-10-16T06:21:59.250Z,98.08
2017-10-16T06:24:26.722Z,98.55
2017-10-16T06:26:54.280Z,98.31
2017-10-16T06:29:21.941Z,98.42
2017-10-16T06:31:49.385Z,98.41
2017-10-16T06:34:16.908Z,98.44
2017-10-16T06:36:44.647Z,98.39
2017-10-16T06:39:12.173Z,98.25
2017-10-16T06:41:39.660Z,98.05
2017-10-16T06:44:07.503Z,97.88
2017-10-16T06:46:34.984Z,97.82
2017-10-16T06:49:02.443Z,97.61
2017-10-16T06:51:30.027Z,97.21
2017-10-16T06:53:57.614Z,97.07
2017-10-16T06:56:25.092Z,97.00
2017-10-16T06:58:52.681Z,96.71
2017-10-16T07:01:20.288Z,96.95
2017-10-16T07:03:47.782Z,96.76
2017-10-16T07:06:15.588Z,96.67
2017-10-16T07:08:43.107Z,96.29
2017-10-16T07:11:10.576Z,95.63
2017-10-16T07:13:38.750Z,94.89
2017-10-16T07:16:06.257Z,94.86
2017-10-16T07:18:33.890Z,95.18
2017-10-16T07:21:01.522Z,94.95
2017-10-16T07:23:29.079Z,94.30
2017-10-16T07:25:56.664Z,94.74
2017-10-16T07:28:24.190Z,94.41
2017-10-16T07:30:51.697Z,94.12
2017-10-16T07:33:19.238Z,94.60
2017-10-16T07:35:47.222Z,94.55
2017-10-16T07:38:14.744Z,94.64
2017-10-16T07:40:42.333Z,94.13
2017-10-16T07:43:10.171Z,93.97
2017-10-16T07:45:37.725Z,94.04
2017-10-16T07:48:05.295Z,93.85
2017-10-16T07:53:06.521Z,93.72
2017-10-16T07:55:34.276Z,93.45
2017-10-16T07:58:01.762Z,92.21
2017-10-16T08:00:29.260Z,92.49
2017-10-16T08:02:57.326Z,92.40
2017-10-16T08:05:25.813Z,92.30
2017-10-16T08:07:53.321Z,91.77
2017-10-16T08:10:21.205Z,92.36
2017-10-16T08:12:48.697Z,93.05
2017-10-16T08:15:16.309Z,93.05
2017-10-16T08:17:44.256Z,92.65
2017-10-16T08:20:11.817Z,91.83
2017-10-16T08:22:39.542Z,92.18
2017-10-16T08:25:07.193Z,92.34
2017-10-16T08:27:34.894Z,92.04
2017-10-16T08:30:02.598Z,91.62
2017-10-16T08:32:30.442Z,92.04
2017-10-16T08:34:57.925Z,91.94
2017-10-16T08:37:25.570Z,91.33
2017-10-16T08:39:53.936Z,91.62
2017-10-16T08:42:21.446Z,91.38
2017-10-16T08:44:49.224Z,91.59
2017-10-16T08:47:17.150Z,91.22
2017-10-16T08:49:44.693Z,90.81
2017-10-16T08:52:12.294Z,90.36
2017-10-16T08:54:39.956Z,90.46
2017-10-16T08:57:07.417Z,90.09
2017-10-16T08:59:35.116Z,90.01
2017-10-16T09:02:03.182Z,90.41
2017-10-16T09:04:30.667Z,91.31
2017-10-16T09:06:58.219Z,89.48
2017-10-16T09:09:25.865Z,89.60
2017-10-16T09:11:54.625Z,90.02
2017-10-16T09:14:22.127Z,89.86
2017-10-16T09:16:49.622Z,89.03
2017-10-16T09:19:17.150Z,89.12
2017-10-16T09:21:44.617Z,88.03
2017-10-16T09:24:12.600Z,87.32
2017-10-16T09:26:40.198Z,86.83
2017-10-16T09:29:07.644Z,86.38
2017-10-16T09:31:35.184Z,85.35
2017-10-16T09:34:02.726Z,84.78
2017-10-16T09:36:30.310Z,83.91
2017-10-16T09:38:58.263Z,82.05
2017-10-16T09:41:25.701Z,81.77
2017-10-16T09:43:53.304Z,80.71
2017-10-16T09:46:20.876Z,80.41
2017-10-16T09:48:49.261Z,79.62
2017-10-16T09:51:16.858Z,78.95
2017-10-16T09:53:44.439Z,78.55
2017-10-16T09:56:12.071Z,77.69
2017-10-16T09:58:40.099Z,76.02
2017-10-16T10:01:07.904Z,75.45
2017-10-16T10:03:35.704Z,73.32
2017-10-16T10:06:03.222Z,72.75
2017-10-16T10:08:31.111Z,72.67
2017-10-16T10:10:58.981Z,70.49
2017-10-16T10:13:26.526Z,71.28
2017-10-16T10:15:54.491Z,71.40
2017-10-16T10:18:22.065Z,69.70
2017-10-16T10:20:49.739Z,68.80
2017-10-16T10:23:17.615Z,66.76
2017-10-16T10:25:45.135Z,66.36
2017-10-16T10:28:12.581Z,66.16
2017-10-16T10:30:40.093Z,64.85
2017-10-16T10:33:07.520Z,64.91
2017-10-16T10:35:35.894Z,63.56
2017-10-16T10:38:03.428Z,63.55
2017-10-16T10:40:30.915Z,63.38
2017-10-16T10:42:59.829Z,60.26
2017-10-16T10:45:28.256Z,61.02
2017-10-16T10:47:56.859Z,60.80
2017-10-16T10:50:24.402Z,60.66
2017-10-16T10:52:54.452Z,61.34
2017-10-16T10:55:23.815Z,60.90
2017-10-16T10:57:51.527Z,60.60
2017-10-16T11:00:19.489Z,59.66
2017-10-16T11:02:47.025Z,59.06
2017-10-16T11:05:17.779Z,58.86
2017-10-16T11:07:45.280Z,58.60
2017-10-16T11:10:12.749Z,57.19
2017-10-16T11:12:40.417Z,56.88
2017-10-16T11:15:08.093Z,56.64
2017-10-16T11:17:35.589Z,56.26
2017-10-16T11:20:03.207Z,54.73
2017-10-16T11:22:31.074Z,54.68
2017-10-16T11:24:58.548Z,53.94
2017-10-16T11:27:27.031Z,51.89
2017-10-16T11:29:54.534Z,51.72
2017-10-16T11:32:21.988Z,51.48
2017-10-16T11:34:49.449Z,52.90
2017-10-16T11:37:17.290Z,54.67
2017-10-16T11:39:44.823Z,52.76
2017-10-16T11:42:13.314Z,52.45
2017-10-16T11:44:40.967Z,52.76
2017-10-16T11:47:08.583Z,54.21
2017-10-16T11:49:36.111Z,52.92
2017-10-16T11:52:03.712Z,52.15
2017-10-16T11:54:31.273Z,52.81
2017-10-16T11:56:58.919Z,52.19
2017-10-16T11:59:26.495Z,51.64
2017-10-16T12:01:54.048Z,52.90
2017-10-16T12:04:21.611Z,52.52
2017-10-16T12:06:49.260Z,52.46
2017-10-16T12:09:17.605Z,52.33
2017-10-16T12:11:45.110Z,53.06
2017-10-16T12:14:12.831Z,52.83
2017-10-16T12:16:40.345Z,53.57
2017-10-16T12:19:07.868Z,52.71
2017-10-16T12:21:35.842Z,52.45
2017-10-16T12:24:03.346Z,52.87
2017-10-16T12:26:30.855Z,53.16
2017-10-16T12:28:58.900Z,52.80
2017-10-16T12:31:26.412Z,52.44
2017-10-16T12:33:53.950Z,52.82
2017-10-16T12:36:21.555Z,53.47
2017-10-16T12:38:49.084Z,53.37
2017-10-16T12:41:16.632Z,53.23
2017-10-16T12:43:44.245Z,53.18
2017-10-16T12:46:11.738Z,54.70
2017-10-16T12:48:39.189Z,52.77
2017-10-16T12:51:06.764Z,52.88
2017-10-16T12:53:34.271Z,52.87
2017-10-16T12:56:01.758Z,53.16
2017-10-16T12:58:29.289Z,53.26
2017-10-16T13:00:56.862Z,52.91
2017-10-16T13:03:24.459Z,52.10
2017-10-16T13:05:52.474Z,53.50
2017-10-16T13:08:19.946Z,52.72
2017-10-16T13:10:47.517Z,52.31
2017-10-16T13:13:15.174Z,53.64
2017-10-16T13:15:42.702Z,52.26
2017-10-16T13:18:10.265Z,51.73
2017-10-16T13:20:37.846Z,52.89
2017-10-16T13:23:05.428Z,52.45
2017-10-16T13:25:33.039Z,53.74
2017-10-16T13:28:00.591Z,52.91
2017-10-16T13:30:28.116Z,53.64
2017-10-16T13:32:55.943Z,53.11
2017-10-16T13:35:23.420Z,53.44
2017-10-16T13:37:50.948Z,54.17
2017-10-16T13:40:18.546Z,53.52
2017-10-16T13:42:46.963Z,53.55
2017-10-16T13:45:14.540Z,54.11
2017-10-16T13:47:42.277Z,53.44
2017-10-16T13:50:09.884Z,53.55
2017-10-16T13:52:38.054Z,53.07
2017-10-16T13:55:06.568Z,53.26
2017-10-16T13:57:34.350Z,53.60
2017-10-16T14:00:01.969Z,53.64
2017-10-16T14:02:29.550Z,54.76
2017-10-16T14:04:57.228Z,53.70
2017-10-16T14:07:25.496Z,54.72
2017-10-16T14:09:53.456Z,53.86
2017-10-16T14:12:21.315Z,54.06
2017-10-16T14:14:49.044Z,53.76
2017-10-16T14:17:16.631Z,54.44
2017-10-16T14:19:44.508Z,53.41
2017-10-16T14:22:12.267Z,53.62
2017-10-16T14:24:39.858Z,54.14
2017-10-16T14:27:07.911Z,54.86
2017-10-16T14:29:35.539Z,54.61
2017-10-16T14:32:03.023Z,55.78
2017-10-16T14:34:32.399Z,55.78
2017-10-16T14:37:00.878Z,56.62
2017-10-16T14:39:28.452Z,57.38
2017-10-16T14:41:57.740Z,58.53
2017-10-16T14:44:25.199Z,57.80
2017-10-16T14:46:52.744Z,57.99
2017-10-16T14:49:21.026Z,58.17
2017-10-16T14:51:48.641Z,58.16
2017-10-16T14:54:16.633Z,57.92
2017-10-16T14:56:44.341Z,57.95
2017-10-16T14:59:11.847Z,58.33
2017-10-16T15:01:39.566Z,58.46
2017-10-16T15:04:08.627Z,58.58
2017-10-16T15:06:36.220Z,58.63
2017-10-16T15:09:03.817Z,59.79
2017-10-16T15:11:31.525Z,61.52
2017-10-16T15:13:59.125Z,61.76
2017-10-16T15:16:26.749Z,64.19
2017-10-16T15:18:54.376Z,64.49
2017-10-16T15:21:23.574Z,64.99
2017-10-16T15:23:51.103Z,65.25
2017-10-16T15:26:18.832Z,66.38
2017-10-16T15:28:46.633Z,66.76
2017-10-16T15:31:14.057Z,67.18
2017-10-16T15:33:42.532Z,68.27
2017-10-16T15:36:10.198Z,68.99
2017-10-16T15:38:39.459Z,69.09
2017-10-16T15:41:07.141Z,69.55
2017-10-16T15:43:34.703Z,70.07
2017-10-16T15:46:02.314Z,70.99
2017-10-16T15:48:30.173Z,71.32
2017-10-16T15:50:57.726Z,72.05
2017-10-16T15:53:25.349Z,72.34
2017-10-16T15:55:53.165Z,73.08
2017-10-16T15:58:20.852Z,73.85
2017-10-16T16:00:48.538Z,74.58
2017-10-16T16:03:17.436Z,75.27
2017-10-16T16:05:45.478Z,75.97
2017-10-16T16:08:15.267Z,76.27
2017-10-16T16:13:18.167Z,77.39
2017-10-16T16:15:46.125Z,77.74
2017-10-16T16:18:13.896Z,78.26
2017-10-16T16:20:41.628Z,78.67
2017-10-16T16:23:09.657Z,79.08
2017-10-16T16:25:37.318Z,79.35
2017-10-16T16:28:06.139Z,79.63
2017-10-16T16:30:36.627Z,79.72
2017-10-16T16:33:04.139Z,80.27
2017-10-16T16:35:31.610Z,80.62
2017-10-16T16:37:59.789Z,81.21
2017-10-16T16:40:27.294Z,81.55
2017-10-16T16:42:54.800Z,81.80
2017-10-16T16:45:22.856Z,81.94
2017-10-16T16:47:50.358Z,82.20
2017-10-16T16:50:20.869Z,82.41
2017-10-16T16:52:48.857Z,82.91
2017-10-16T16:55:16.334Z,83.30
2017-10-16T16:57:46.123Z,83.55
2017-10-16T17:00:13.741Z,83.85
2017-10-16T17:02:41.199Z,84.54
2017-10-16T17:05:08.758Z,84.88
2017-10-16T17:07:36.391Z,85.33
2017-10-16T17:10:03.990Z,85.84
2017-10-16T17:12:31.548Z,86.60
2017-10-16T17:14:59.440Z,86.51
2017-10-16T17:17:27.044Z,86.78
2017-10-16T17:19:54.597Z,86.94
2017-10-16T17:22:22.647Z,87.37
2017-10-16T17:24:50.272Z,87.91
2017-10-16T17:27:17.788Z,88.20
2017-10-16T17:29:50.407Z,88.45
2017-10-16T17:32:17.942Z,88.66
2017-10-16T17:34:45.573Z,88.94
2017-10-16T17:37:13.438Z,89.21
2017-10-16T17:39:40.977Z,89.41
2017-10-16T17:42:08.464Z,89.39
2017-10-16T17:44:36.589Z,89.68
2017-10-16T17:47:04.419Z,89.90
2017-10-16T17:49:32.011Z,90.17
2017-10-16T17:51:59.952Z,90.33
2017-10-16T17:54:27.418Z,90.30
2017-10-16T17:56:54.917Z,90.47
2017-10-16T17:59:23.274Z,90.48
2017-10-16T18:01:51.761Z,90.81
2017-10-16T18:04:19.289Z,90.84
2017-10-16T18:06:47.156Z,91.53
2017-10-16T18:09:14.719Z,92.15
2017-10-16T18:11:42.311Z,92.11
2017-10-16T18:14:09.877Z,92.56
2017-10-16T18:16:37.534Z,92.21
2017-10-16T18:19:05.129Z,92.21
2017-10-16T18:21:32.745Z,92.11
2017-10-16T18:24:00.361Z,91.84
2017-10-16T18:26:27.935Z,91.48
2017-10-16T18:28:56.188Z,91.27
2017-10-16T18:31:23.769Z,91.21
2017-10-16T18:33:51.385Z,91.02
2017-10-16T18:36:19.025Z,91.13
2017-10-16T18:38:47.282Z,91.29
2017-10-16T18:41:14.835Z,91.42
2017-10-16T18:43:42.429Z,91.10
2017-10-16T18:46:09.938Z,91.10
2017-10-16T18:48:37.401Z,91.03
2017-10-16T18:51:05.064Z,91.17
2017-10-16T18:53:32.612Z,90.78
2017-10-16T18:56:00.163Z,90.63
2017-10-16T18:58:27.687Z,90.84
2017-10-16T19:00:55.273Z,91.06
2017-10-16T19:03:22.731Z,91.01
2017-10-16T19:05:50.271Z,90.61
2017-10-16T19:08:17.743Z,90.48
2017-10-16T19:10:45.281Z,90.71
2017-10-16T19:13:12.941Z,90.78
2017-10-16T19:15:40.580Z,90.58
2017-10-16T19:18:08.243Z,90.48
2017-10-16T19:20:35.886Z,90.55
2017-10-16T19:23:03.428Z,91.23
2017-10-16T19:25:31.010Z,91.03
2017-10-16T19:27:58.626Z,92.63
2017-10-16T19:30:26.272Z,92.38
2017-10-16T19:32:53.825Z,92.49
2017-10-16T19:35:21.788Z,91.84
2017-10-16T19:37:49.461Z,92.19
2017-10-16T19:40:17.106Z,92.37
2017-10-16T19:42:44.724Z,92.54
2017-10-16T19:45:12.272Z,92.44
2017-10-16T19:47:39.892Z,92.52
2017-10-16T19:50:07.568Z,92.56
2017-10-16T19:52:35.291Z,92.59
2017-10-16T19:55:02.869Z,92.82
2017-10-16T19:57:30.423Z,93.00
2017-10-16T19:59:58.093Z,92.77
2017-10-16T20:02:25.656Z,92.96
2017-10-16T20:04:53.318Z,92.82
2017-10-16T20:07:20.926Z,92.78
2017-10-16T20:09:48.537Z,92.76
2017-10-16T20:12:16.206Z,92.97
2017-10-16T20:14:43.854Z,92.55
2017-10-16T20:17:11.472Z,92.29
2017-10-16T20:19:38.990Z,92.48
2017-10-16T20:22:06.476Z,92.46
2017-10-16T20:24:34.099Z,92.71
2017-10-16T20:27:01.917Z,92.92
2017-10-16T20:29:29.475Z,92.90
2017-10-16T20:31:56.986Z,93.28
2017-10-16T20:34:24.602Z,93.33
2017-10-16T20:36:52.245Z,93.84
2017-10-16T20:39:19.886Z,94.27
2017-10-16T20:41:48.202Z,93.95
2017-10-16T20:44:15.785Z,94.13
2017-10-16T20:46:43.794Z,94.72
2017-10-16T20:49:11.796Z,95.05
2017-10-16T20:51:39.352Z,95.07
2017-10-16T20:54:07.005Z,95.01
2017-10-16T20:56:34.681Z,94.93
2017-10-16T20:59:02.316Z,95.04
2017-10-16T21:01:29.814Z,95.81
2017-10-16T21:03:57.459Z,95.41
2017-10-16T21:06:25.023Z,95.26
2017-10-16T21:08:52.513Z,95.18
2017-10-16T21:11:20.530Z,95.05
2017-10-16T21:13:49.765Z,94.95
2017-10-16T21:16:17.294Z,94.96
2017-10-16T21:18:44.870Z,95.00
2017-10-16T21:21:12.527Z,95.14
2017-10-16T21:23:40.232Z,95.13
2017-10-16T21:26:08.428Z,95.50
2017-10-16T21:28:36.138Z,95.46
2017-10-16T21:31:03.699Z,95.71
2017-10-16T21:33:31.310Z,95.77
2017-10-16T21:35:59.036Z,95.97
2017-10-16T21:38:26.505Z,95.87
2017-10-16T21:40:54.421Z,95.79
2017-10-16T21:43:21.894Z,95.85
2017-10-16T21:45:49.444Z,95.82
2017-10-16T21:48:17.430Z,95.79
2017-10-16T21:50:44.943Z,95.91
2017-10-16T21:53:12.375Z,96.38
2017-10-16T21:55:40.807Z,96.32
2017-10-16T21:58:08.291Z,96.25
2017-10-16T22:00:35.890Z,96.48
2017-10-16T22:03:03.412Z,96.44
2017-10-16T22:05:30.869Z,96.94
2017-10-16T22:07:58.324Z,97.01
2017-10-16T22:10:25.779Z,96.98
2017-10-16T22:12:53.233Z,97.07
2017-10-16T22:15:20.839Z,97.90
2017-10-16T22:17:48.638Z,97.38
2017-10-16T22:20:16.107Z,97.64
2017-10-16T22:22:43.720Z,97.44
2017-10-16T22:25:11.648Z,97.13
2017-10-16T22:27:39.183Z,97.19
2017-10-16T22:30:06.698Z,97.06
2017-10-16T22:32:34.831Z,97.09
2017-10-16T22:35:02.279Z,97.03
2017-10-16T22:37:29.811Z,96.84
2017-10-16T22:39:57.330Z,96.83
2017-10-16T22:42:24.801Z,96.90
2017-10-16T22:44:52.362Z,96.83
2017-10-16T22:47:34.800Z,96.80
2017-10-16T22:50:02.262Z,96.83
2017-10-16T22:52:29.751Z,97.16
2017-10-16T22:54:57.317Z,97.10
2017-10-16T22:57:24.827Z,97.19
2017-10-16T22:59:52.360Z,97.48
2017-10-16T23:02:19.892Z,97.83
2017-10-16T23:04:47.552Z,97.62
2017-10-16T23:07:15.021Z,97.79
2017-10-16T23:09:42.637Z,97.74
2017-10-16T23:12:10.111Z,97.50
2017-10-16T23:14:37.540Z,97.16
2017-10-16T23:17:05.134Z,97.26
2017-10-16T23:19:32.607Z,97.41
2017-10-16T23:22:00.189Z,97.54
2017-10-16T23:24:27.814Z,97.73
2017-10-16T23:26:55.379Z,97.81
2017-10-16T23:29:22.807Z,98.07
2017-10-16T23:31:50.706Z,98.24
2017-10-16T23:34:18.194Z,97.94
2017-10-16T23:36:45.677Z,97.86
2017-10-16T23:39:13.228Z,97.76
2017-10-16T23:41:40.800Z,97.82
2017-10-16T23:44:08.244Z,97.81
2017-10-16T23:46:35.846Z,97.80
2017-10-16T23:49:03.440Z,98.11
2017-10-16T23:51:31.025Z,98.40
2017-10-16T23:53:58.489Z,98.45
2017-10-16T23:56:25.943Z,98.18
2017-10-16T23:58:53.380Z,98.33
